sensor_id;sensor_type;location;lat;lon;timestamp;P1;durP1;ratioP1;P2;durP2;ratioP2
40953;SDS011;26686;50.130;8.710;2023-01-09T00:02:07;2.37;;;1.60;;
40953;SDS011;26686;50.130;8.710;2023-01-09T00:07:09;2.17;;;1.40;;
40953;SDS011;26686;50.130;8.710;2023-01-09T00:12:11;1.92;;;1.50;;
40953;SDS011;26686;50.130;8.710;2023-01-09T00:17:13;1.63;;;1.25;;
40953;SDS011;26686;50.130;8.710;2023-01-09T00:22:15;1.40;;;1.30;;
40953;SDS011;26686;50.130;8.710;2023-01-09T00:27:19;1.40;;;1.30;;
40953;SDS011;26686;50.130;8.710;2023-01-09T00:32:21;2.03;;;1.60;;
40953;SDS011;26686;50.130;8.710;2023-01-09T00:37:22;3.03;;;1.40;;
40953;SDS011;26686;50.130;8.710;2023-01-09T00:42:24;1.75;;;1.52;;
40953;SDS011;26686;50.130;8.710;2023-01-09T00:47:31;5.35;;;2.08;;
40953;SDS011;26686;50.130;8.710;2023-01-09T00:52:37;1.83;;;1.60;;
40953;SDS011;26686;50.130;8.710;2023-01-09T00:57:39;2.22;;;2.00;;
40953;SDS011;26686;50.130;8.710;2023-01-09T01:02:43;1.85;;;1.75;;
40953;SDS011;26686;50.130;8.710;2023-01-09T01:07:45;2.03;;;1.80;;
40953;SDS011;26686;50.130;8.710;2023-01-09T01:12:47;1.85;;;1.50;;
40953;SDS011;26686;50.130;8.710;2023-01-09T01:17:49;1.00;;;0.70;;
40953;SDS011;26686;50.130;8.710;2023-01-09T01:22:52;1.50;;;1.00;;
40953;SDS011;26686;50.130;8.710;2023-01-09T01:27:53;1.40;;;1.13;;
40953;SDS011;26686;50.130;8.710;2023-01-09T01:32:54;1.92;;;1.25;;
40953;SDS011;26686;50.130;8.710;2023-01-09T01:37:56;1.50;;;1.23;;
40953;SDS011;26686;50.130;8.710;2023-01-09T01:42:58;1.50;;;1.40;;
40953;SDS011;26686;50.130;8.710;2023-01-09T01:48:08;1.95;;;1.73;;
40953;SDS011;26686;50.130;8.710;2023-01-09T01:53:14;2.15;;;1.90;;
40953;SDS011;26686;50.130;8.710;2023-01-09T01:58:25;2.22;;;2.03;;
40953;SDS011;26686;50.130;8.710;2023-01-09T02:03:27;2.60;;;2.40;;
40953;SDS011;26686;50.130;8.710;2023-01-09T02:08:30;2.38;;;1.88;;
40953;SDS011;26686;50.130;8.710;2023-01-09T02:13:36;2.00;;;1.80;;
40953;SDS011;26686;50.130;8.710;2023-01-09T02:24:18;2.65;;;1.85;;
40953;SDS011;26686;50.130;8.710;2023-01-09T02:29:38;2.28;;;1.40;;
40953;SDS011;26686;50.130;8.710;2023-01-09T02:45:25;1.45;;;1.17;;
40953;SDS011;26686;50.130;8.710;2023-01-09T02:55:56;1.77;;;1.52;;
40953;SDS011;26686;50.130;8.710;2023-01-09T03:11:40;2.00;;;1.42;;
40953;SDS011;26686;50.130;8.710;2023-01-09T03:16:45;1.35;;;0.77;;
40953;SDS011;26686;50.130;8.710;2023-01-09T03:21:50;0.95;;;0.68;;
40953;SDS011;26686;50.130;8.710;2023-01-09T03:26:52;1.23;;;0.70;;
40953;SDS011;26686;50.130;8.710;2023-01-09T03:31:57;0.57;;;0.43;;
40953;SDS011;26686;50.130;8.710;2023-01-09T03:36:58;1.05;;;0.45;;
40953;SDS011;26686;50.130;8.710;2023-01-09T03:42:00;1.35;;;0.30;;
40953;SDS011;26686;50.130;8.710;2023-01-09T03:47:03;0.77;;;0.30;;
40953;SDS011;26686;50.130;8.710;2023-01-09T03:52:04;0.55;;;0.20;;
40953;SDS011;26686;50.130;8.710;2023-01-09T03:57:06;0.32;;;0.10;;
40953;SDS011;26686;50.130;8.710;2023-01-09T04:02:07;0.60;;;0.10;;
40953;SDS011;26686;50.130;8.710;2023-01-09T04:07:09;0.25;;;0.10;;
40953;SDS011;26686;50.130;8.710;2023-01-09T04:12:11;0.52;;;0.10;;
40953;SDS011;26686;50.130;8.710;2023-01-09T04:17:12;0.30;;;0.10;;
40953;SDS011;26686;50.130;8.710;2023-01-09T04:22:16;0.20;;;0.10;;
40953;SDS011;26686;50.130;8.710;2023-01-09T04:27:18;0.75;;;0.28;;
40953;SDS011;26686;50.130;8.710;2023-01-09T04:32:19;0.30;;;0.10;;
40953;SDS011;26686;50.130;8.710;2023-01-09T04:37:21;0.00;;;0.00;;
40953;SDS011;26686;50.130;8.710;2023-01-09T04:42:23;0.75;;;0.13;;
40953;SDS011;26686;50.130;8.710;2023-01-09T04:47:25;0.10;;;0.08;;
40953;SDS011;26686;50.130;8.710;2023-01-09T04:52:27;0.50;;;0.20;;
40953;SDS011;26686;50.130;8.710;2023-01-09T04:57:28;0.30;;;0.10;;
40953;SDS011;26686;50.130;8.710;2023-01-09T05:02:30;0.70;;;0.20;;
40953;SDS011;26686;50.130;8.710;2023-01-09T05:07:31;0.63;;;0.10;;
40953;SDS011;26686;50.130;8.710;2023-01-09T05:12:33;0.50;;;0.00;;
40953;SDS011;26686;50.130;8.710;2023-01-09T05:17:37;2.65;;;0.10;;
40953;SDS011;26686;50.130;8.710;2023-01-09T05:22:39;1.30;;;0.10;;
40953;SDS011;26686;50.130;8.710;2023-01-09T05:27:40;0.50;;;0.10;;
40953;SDS011;26686;50.130;8.710;2023-01-09T05:32:46;1.77;;;0.20;;
40953;SDS011;26686;50.130;8.710;2023-01-09T05:37:47;0.32;;;0.17;;
40953;SDS011;26686;50.130;8.710;2023-01-09T05:42:49;0.20;;;0.10;;
40953;SDS011;26686;50.130;8.710;2023-01-09T05:47:50;0.20;;;0.08;;
40953;SDS011;26686;50.130;8.710;2023-01-09T05:52:52;1.00;;;0.10;;
40953;SDS011;26686;50.130;8.710;2023-01-09T05:57:53;1.90;;;0.25;;
40953;SDS011;26686;50.130;8.710;2023-01-09T06:02:55;0.75;;;0.10;;
40953;SDS011;26686;50.130;8.710;2023-01-09T06:07:56;1.15;;;0.10;;
40953;SDS011;26686;50.130;8.710;2023-01-09T06:12:58;0.50;;;0.10;;
40953;SDS011;26686;50.130;8.710;2023-01-09T06:17:59;0.68;;;0.13;;
40953;SDS011;26686;50.130;8.710;2023-01-09T06:23:01;1.77;;;0.28;;
40953;SDS011;26686;50.130;8.710;2023-01-09T06:28:02;0.90;;;0.20;;
40953;SDS011;26686;50.130;8.710;2023-01-09T06:33:05;1.02;;;0.20;;
40953;SDS011;26686;50.130;8.710;2023-01-09T06:38:08;1.92;;;0.20;;
40953;SDS011;26686;50.130;8.710;2023-01-09T06:43:09;1.02;;;0.30;;
40953;SDS011;26686;50.130;8.710;2023-01-09T06:48:11;1.90;;;0.20;;
40953;SDS011;26686;50.130;8.710;2023-01-09T06:53:13;2.55;;;0.43;;
40953;SDS011;26686;50.130;8.710;2023-01-09T06:58:14;2.22;;;0.32;;
40953;SDS011;26686;50.130;8.710;2023-01-09T07:03:16;1.73;;;0.80;;
40953;SDS011;26686;50.130;8.710;2023-01-09T07:08:21;1.70;;;0.32;;
40953;SDS011;26686;50.130;8.710;2023-01-09T07:13:23;3.38;;;1.13;;
40953;SDS011;26686;50.130;8.710;2023-01-09T07:18:24;3.42;;;0.40;;
40953;SDS011;26686;50.130;8.710;2023-01-09T07:23:26;3.10;;;0.52;;
40953;SDS011;26686;50.130;8.710;2023-01-09T07:28:27;2.17;;;0.52;;
40953;SDS011;26686;50.130;8.710;2023-01-09T07:33:30;2.22;;;0.43;;
40953;SDS011;26686;50.130;8.710;2023-01-09T07:38:32;2.50;;;0.63;;
40953;SDS011;26686;50.130;8.710;2023-01-09T07:43:37;2.75;;;0.60;;
40953;SDS011;26686;50.130;8.710;2023-01-09T07:48:39;3.33;;;0.85;;
40953;SDS011;26686;50.130;8.710;2023-01-09T07:53:40;1.85;;;0.75;;
40953;SDS011;26686;50.130;8.710;2023-01-09T07:58:45;1.90;;;0.50;;
40953;SDS011;26686;50.130;8.710;2023-01-09T08:03:47;3.65;;;1.23;;
40953;SDS011;26686;50.130;8.710;2023-01-09T08:08:49;2.25;;;0.63;;
40953;SDS011;26686;50.130;8.710;2023-01-09T08:13:50;3.35;;;0.52;;
40953;SDS011;26686;50.130;8.710;2023-01-09T08:18:52;1.55;;;0.47;;
40953;SDS011;26686;50.130;8.710;2023-01-09T08:23:54;2.00;;;0.60;;
40953;SDS011;26686;50.130;8.710;2023-01-09T08:28:57;2.30;;;0.60;;
40953;SDS011;26686;50.130;8.710;2023-01-09T08:33:58;2.53;;;0.85;;
40953;SDS011;26686;50.130;8.710;2023-01-09T08:39:02;1.77;;;0.47;;
40953;SDS011;26686;50.130;8.710;2023-01-09T08:44:03;2.45;;;0.73;;
40953;SDS011;26686;50.130;8.710;2023-01-09T08:49:24;3.28;;;0.70;;
40953;SDS011;26686;50.130;8.710;2023-01-09T08:54:26;2.00;;;0.57;;
40953;SDS011;26686;50.130;8.710;2023-01-09T08:59:31;3.30;;;0.70;;
40953;SDS011;26686;50.130;8.710;2023-01-09T09:04:33;3.88;;;0.45;;
40953;SDS011;26686;50.130;8.710;2023-01-09T09:09:36;2.15;;;0.60;;
40953;SDS011;26686;50.130;8.710;2023-01-09T09:14:37;2.95;;;0.75;;
40953;SDS011;26686;50.130;8.710;2023-01-09T09:20:02;0.98;;;0.32;;
40953;SDS011;26686;50.130;8.710;2023-01-09T09:25:05;1.10;;;0.55;;
40953;SDS011;26686;50.130;8.710;2023-01-09T09:30:08;1.27;;;0.40;;
40953;SDS011;26686;50.130;8.710;2023-01-09T09:35:11;1.95;;;0.30;;
40953;SDS011;26686;50.130;8.710;2023-01-09T09:40:17;0.90;;;0.38;;
40953;SDS011;26686;50.130;8.710;2023-01-09T09:56:11;1.20;;;0.30;;
40953;SDS011;26686;50.130;8.710;2023-01-09T10:01:17;0.75;;;0.20;;
40953;SDS011;26686;50.130;8.710;2023-01-09T10:06:30;1.83;;;0.40;;
40953;SDS011;26686;50.130;8.710;2023-01-09T10:11:46;1.92;;;0.45;;
40953;SDS011;26686;50.130;8.710;2023-01-09T10:22:15;0.88;;;0.15;;
40953;SDS011;26686;50.130;8.710;2023-01-09T10:27:40;2.28;;;0.40;;
40953;SDS011;26686;50.130;8.710;2023-01-09T10:38:24;3.35;;;0.50;;
40953;SDS011;26686;50.130;8.710;2023-01-09T10:48:59;2.63;;;0.53;;
40953;SDS011;26686;50.130;8.710;2023-01-09T10:54:10;1.03;;;0.30;;
40953;SDS011;26686;50.130;8.710;2023-01-09T10:59:15;1.08;;;0.20;;
40953;SDS011;26686;50.130;8.710;2023-01-09T11:04:19;4.25;;;0.45;;
40953;SDS011;26686;50.130;8.710;2023-01-09T11:09:26;1.02;;;0.30;;
40953;SDS011;26686;50.130;8.710;2023-01-09T11:14:43;2.20;;;0.40;;
40953;SDS011;26686;50.130;8.710;2023-01-09T11:20:01;2.40;;;0.43;;
40953;SDS011;26686;50.130;8.710;2023-01-09T11:25:11;1.60;;;0.22;;
40953;SDS011;26686;50.130;8.710;2023-01-09T11:30:23;2.22;;;0.30;;
40953;SDS011;26686;50.130;8.710;2023-01-09T11:35:30;1.73;;;0.40;;
40953;SDS011;26686;50.130;8.710;2023-01-09T11:40:43;1.73;;;0.40;;
40953;SDS011;26686;50.130;8.710;2023-01-09T11:46:06;2.40;;;0.40;;
40953;SDS011;26686;50.130;8.710;2023-01-09T11:51:29;0.90;;;0.55;;
40953;SDS011;26686;50.130;8.710;2023-01-09T11:56:35;0.95;;;0.32;;
40953;SDS011;26686;50.130;8.710;2023-01-09T12:01:41;1.58;;;0.63;;
40953;SDS011;26686;50.130;8.710;2023-01-09T12:12:12;1.83;;;0.60;;
40953;SDS011;26686;50.130;8.710;2023-01-09T12:17:33;1.70;;;0.60;;
40953;SDS011;26686;50.130;8.710;2023-01-09T12:22:55;2.00;;;0.45;;
40953;SDS011;26686;50.130;8.710;2023-01-09T12:38:45;1.73;;;0.70;;
40953;SDS011;26686;50.130;8.710;2023-01-09T12:49:36;2.53;;;0.60;;
40953;SDS011;26686;50.130;8.710;2023-01-09T12:54:44;1.90;;;0.60;;
40953;SDS011;26686;50.130;8.710;2023-01-09T12:59:51;1.30;;;0.75;;
40953;SDS011;26686;50.130;8.710;2023-01-09T13:05:00;5.68;;;0.75;;
40953;SDS011;26686;50.130;8.710;2023-01-09T13:10:15;4.55;;;0.55;;
40953;SDS011;26686;50.130;8.710;2023-01-09T13:21:11;3.00;;;0.65;;
40953;SDS011;26686;50.130;8.710;2023-01-09T13:26:21;1.83;;;0.60;;
40953;SDS011;26686;50.130;8.710;2023-01-09T13:31:37;2.78;;;0.85;;
40953;SDS011;26686;50.130;8.710;2023-01-09T13:36:53;3.17;;;0.80;;
40953;SDS011;26686;50.130;8.710;2023-01-09T13:41:56;1.90;;;0.60;;
40953;SDS011;26686;50.130;8.710;2023-01-09T13:52:32;1.52;;;0.50;;
40953;SDS011;26686;50.130;8.710;2023-01-09T13:57:37;2.15;;;0.52;;
40953;SDS011;26686;50.130;8.710;2023-01-09T14:07:50;1.70;;;0.60;;
40953;SDS011;26686;50.130;8.710;2023-01-09T14:13:05;2.65;;;0.50;;
40953;SDS011;26686;50.130;8.710;2023-01-09T14:18:21;1.33;;;0.40;;
40953;SDS011;26686;50.130;8.710;2023-01-09T14:23:29;2.90;;;0.20;;
40953;SDS011;26686;50.130;8.710;2023-01-09T14:28:52;0.65;;;0.20;;
40953;SDS011;26686;50.130;8.710;2023-01-09T14:34:29;0.68;;;0.20;;
40953;SDS011;26686;50.130;8.710;2023-01-09T14:39:38;1.92;;;0.30;;
40953;SDS011;26686;50.130;8.710;2023-01-09T14:44:46;0.90;;;0.30;;
40953;SDS011;26686;50.130;8.710;2023-01-09T14:49:53;0.88;;;0.20;;
40953;SDS011;26686;50.130;8.710;2023-01-09T14:55:00;0.93;;;0.40;;
40953;SDS011;26686;50.130;8.710;2023-01-09T15:00:05;1.83;;;0.38;;
40953;SDS011;26686;50.130;8.710;2023-01-09T15:05:21;2.05;;;0.82;;
40953;SDS011;26686;50.130;8.710;2023-01-09T15:10:27;0.85;;;0.30;;
40953;SDS011;26686;50.130;8.710;2023-01-09T15:15:30;2.75;;;0.60;;
40953;SDS011;26686;50.130;8.710;2023-01-09T15:20:32;1.60;;;0.50;;
40953;SDS011;26686;50.130;8.710;2023-01-09T15:25:35;0.93;;;0.30;;
40953;SDS011;26686;50.130;8.710;2023-01-09T15:30:40;1.13;;;0.43;;
40953;SDS011;26686;50.130;8.710;2023-01-09T15:35:44;1.95;;;0.50;;
40953;SDS011;26686;50.130;8.710;2023-01-09T15:40:51;1.80;;;0.30;;
40953;SDS011;26686;50.130;8.710;2023-01-09T15:45:54;1.60;;;0.55;;
40953;SDS011;26686;50.130;8.710;2023-01-09T15:51:00;0.75;;;0.30;;
40953;SDS011;26686;50.130;8.710;2023-01-09T15:56:17;2.17;;;0.60;;
40953;SDS011;26686;50.130;8.710;2023-01-09T16:06:30;2.35;;;0.70;;
40953;SDS011;26686;50.130;8.710;2023-01-09T16:11:36;1.98;;;0.60;;
40953;SDS011;26686;50.130;8.710;2023-01-09T16:16:38;1.15;;;0.32;;
40953;SDS011;26686;50.130;8.710;2023-01-09T16:21:42;1.23;;;0.32;;
40953;SDS011;26686;50.130;8.710;2023-01-09T16:26:43;1.33;;;0.50;;
40953;SDS011;26686;50.130;8.710;2023-01-09T16:31:45;1.13;;;0.30;;
40953;SDS011;26686;50.130;8.710;2023-01-09T16:36:47;1.80;;;0.50;;
40953;SDS011;26686;50.130;8.710;2023-01-09T16:41:48;2.22;;;0.50;;
40953;SDS011;26686;50.130;8.710;2023-01-09T16:47:09;1.92;;;0.60;;
40953;SDS011;26686;50.130;8.710;2023-01-09T16:52:13;1.30;;;0.50;;
40953;SDS011;26686;50.130;8.710;2023-01-09T16:57:16;1.55;;;0.50;;
40953;SDS011;26686;50.130;8.710;2023-01-09T17:02:18;1.13;;;0.30;;
40953;SDS011;26686;50.130;8.710;2023-01-09T17:07:21;1.58;;;0.40;;
40953;SDS011;26686;50.130;8.710;2023-01-09T17:12:26;1.08;;;0.30;;
40953;SDS011;26686;50.130;8.710;2023-01-09T17:17:28;2.30;;;0.40;;
40953;SDS011;26686;50.130;8.710;2023-01-09T17:22:31;1.95;;;0.57;;
40953;SDS011;26686;50.130;8.710;2023-01-09T17:27:33;2.55;;;0.73;;
40953;SDS011;26686;50.130;8.710;2023-01-09T17:32:56;1.52;;;0.60;;
40953;SDS011;26686;50.130;8.710;2023-01-09T17:37:57;2.70;;;0.60;;
40953;SDS011;26686;50.130;8.710;2023-01-09T17:42:59;1.02;;;0.70;;
40953;SDS011;26686;50.130;8.710;2023-01-09T17:48:00;2.50;;;0.63;;
40953;SDS011;26686;50.130;8.710;2023-01-09T17:53:02;2.47;;;0.73;;
40953;SDS011;26686;50.130;8.710;2023-01-09T17:58:03;1.42;;;0.60;;
40953;SDS011;26686;50.130;8.710;2023-01-09T18:03:05;2.15;;;0.68;;
40953;SDS011;26686;50.130;8.710;2023-01-09T18:08:10;1.30;;;0.80;;
40953;SDS011;26686;50.130;8.710;2023-01-09T18:13:13;1.35;;;0.70;;
40953;SDS011;26686;50.130;8.710;2023-01-09T18:18:16;1.83;;;0.75;;
40953;SDS011;26686;50.130;8.710;2023-01-09T18:23:17;2.75;;;0.63;;
40953;SDS011;26686;50.130;8.710;2023-01-09T18:28:19;2.10;;;0.77;;
40953;SDS011;26686;50.130;8.710;2023-01-09T18:33:21;0.75;;;0.40;;
40953;SDS011;26686;50.130;8.710;2023-01-09T18:38:23;0.80;;;0.30;;
40953;SDS011;26686;50.130;8.710;2023-01-09T18:43:25;1.50;;;0.35;;
40953;SDS011;26686;50.130;8.710;2023-01-09T18:48:27;1.50;;;0.63;;
40953;SDS011;26686;50.130;8.710;2023-01-09T18:53:28;1.23;;;0.50;;
40953;SDS011;26686;50.130;8.710;2023-01-09T18:58:30;1.70;;;0.50;;
40953;SDS011;26686;50.130;8.710;2023-01-09T19:03:33;2.05;;;0.60;;
40953;SDS011;26686;50.130;8.710;2023-01-09T19:08:35;2.80;;;0.82;;
40953;SDS011;26686;50.130;8.710;2023-01-09T19:13:37;2.45;;;0.85;;
40953;SDS011;26686;50.130;8.710;2023-01-09T19:18:39;3.08;;;1.35;;
40953;SDS011;26686;50.130;8.710;2023-01-09T19:23:42;8.48;;;1.85;;
40953;SDS011;26686;50.130;8.710;2023-01-09T19:28:44;1.80;;;0.77;;
40953;SDS011;26686;50.130;8.710;2023-01-09T19:33:48;3.50;;;0.90;;
40953;SDS011;26686;50.130;8.710;2023-01-09T19:38:57;1.27;;;0.90;;
40953;SDS011;26686;50.130;8.710;2023-01-09T19:44:00;2.95;;;1.27;;
40953;SDS011;26686;50.130;8.710;2023-01-09T19:49:02;1.70;;;0.60;;
40953;SDS011;26686;50.130;8.710;2023-01-09T19:54:05;2.28;;;0.70;;
40953;SDS011;26686;50.130;8.710;2023-01-09T19:59:06;2.33;;;0.75;;
40953;SDS011;26686;50.130;8.710;2023-01-09T20:04:09;1.95;;;0.60;;
40953;SDS011;26686;50.130;8.710;2023-01-09T20:09:17;2.35;;;0.50;;
40953;SDS011;26686;50.130;8.710;2023-01-09T20:14:27;3.60;;;0.80;;
40953;SDS011;26686;50.130;8.710;2023-01-09T20:19:32;1.38;;;0.57;;
40953;SDS011;26686;50.130;8.710;2023-01-09T20:24:33;2.40;;;0.50;;
40953;SDS011;26686;50.130;8.710;2023-01-09T20:29:35;2.60;;;1.00;;
40953;SDS011;26686;50.130;8.710;2023-01-09T20:34:36;1.77;;;0.98;;
40953;SDS011;26686;50.130;8.710;2023-01-09T20:39:40;4.03;;;1.15;;
40953;SDS011;26686;50.130;8.710;2023-01-09T20:44:42;2.92;;;1.05;;
40953;SDS011;26686;50.130;8.710;2023-01-09T20:49:43;2.65;;;1.05;;
40953;SDS011;26686;50.130;8.710;2023-01-09T20:54:45;4.25;;;0.80;;
40953;SDS011;26686;50.130;8.710;2023-01-09T20:59:46;2.78;;;0.90;;
40953;SDS011;26686;50.130;8.710;2023-01-09T21:04:50;5.13;;;1.70;;
40953;SDS011;26686;50.130;8.710;2023-01-09T21:09:53;3.65;;;1.30;;
40953;SDS011;26686;50.130;8.710;2023-01-09T21:14:56;4.60;;;1.23;;
40953;SDS011;26686;50.130;8.710;2023-01-09T21:20:05;3.05;;;1.15;;
40953;SDS011;26686;50.130;8.710;2023-01-09T21:25:08;3.92;;;1.10;;
40953;SDS011;26686;50.130;8.710;2023-01-09T21:30:11;2.60;;;0.70;;
40953;SDS011;26686;50.130;8.710;2023-01-09T21:35:13;3.15;;;0.90;;
40953;SDS011;26686;50.130;8.710;2023-01-09T21:40:17;2.35;;;1.35;;
40953;SDS011;26686;50.130;8.710;2023-01-09T21:45:18;4.57;;;1.20;;
40953;SDS011;26686;50.130;8.710;2023-01-09T21:50:38;3.22;;;1.20;;
40953;SDS011;26686;50.130;8.710;2023-01-09T21:55:43;2.50;;;1.05;;
40953;SDS011;26686;50.130;8.710;2023-01-09T22:00:46;1.70;;;0.60;;
40953;SDS011;26686;50.130;8.710;2023-01-09T22:05:47;4.13;;;0.98;;
40953;SDS011;26686;50.130;8.710;2023-01-09T22:10:52;3.25;;;0.90;;
40953;SDS011;26686;50.130;8.710;2023-01-09T22:16:02;2.67;;;1.15;;
40953;SDS011;26686;50.130;8.710;2023-01-09T22:21:04;2.42;;;0.80;;
40953;SDS011;26686;50.130;8.710;2023-01-09T22:26:10;2.72;;;1.48;;
40953;SDS011;26686;50.130;8.710;2023-01-09T22:31:15;1.60;;;0.70;;
40953;SDS011;26686;50.130;8.710;2023-01-09T22:36:18;2.30;;;1.00;;
40953;SDS011;26686;50.130;8.710;2023-01-09T22:41:20;2.90;;;0.98;;
40953;SDS011;26686;50.130;8.710;2023-01-09T22:46:23;4.68;;;0.98;;
40953;SDS011;26686;50.130;8.710;2023-01-09T22:51:24;2.90;;;0.93;;
40953;SDS011;26686;50.130;8.710;2023-01-09T22:56:26;4.82;;;1.60;;
40953;SDS011;26686;50.130;8.710;2023-01-09T23:01:27;2.03;;;0.80;;
40953;SDS011;26686;50.130;8.710;2023-01-09T23:06:29;2.53;;;0.93;;
40953;SDS011;26686;50.130;8.710;2023-01-09T23:11:31;1.50;;;0.85;;
40953;SDS011;26686;50.130;8.710;2023-01-09T23:16:51;2.63;;;0.90;;
40953;SDS011;26686;50.130;8.710;2023-01-09T23:21:55;1.20;;;0.70;;
40953;SDS011;26686;50.130;8.710;2023-01-09T23:26:56;2.70;;;0.80;;
40953;SDS011;26686;50.130;8.710;2023-01-09T23:31:58;1.88;;;1.00;;
40953;SDS011;26686;50.130;8.710;2023-01-09T23:37:01;2.25;;;1.40;;
40953;SDS011;26686;50.130;8.710;2023-01-09T23:42:04;2.47;;;1.33;;
40953;SDS011;26686;50.130;8.710;2023-01-09T23:47:25;2.70;;;1.50;;
40953;SDS011;26686;50.130;8.710;2023-01-09T23:52:29;4.20;;;1.10;;
40953;SDS011;26686;50.130;8.710;2023-01-09T23:57:31;2.85;;;1.15;;
